Hlavní strana
METAR-TAF:

METAR-TAF

Letiště :

Mezinárodní letiště Krále Abda al-Azíze

Džidda, Saúdská Arábie

zeměpisná šířka: 21-42N, zeměpisná délka: 039-11E, výška: 15 m

Aktuální stav počasí

Zpráva byla vytvořena před 24 minutami, v 22:00 UTC
Severní vítr 3 kt
Teplota 23°C
Vlhkost vzduchu 69%
Tlak 1013 hPa
Viditelnost 10 km a více
Skoro jasno ve výšce 4000 ft

METAR: OEJN 182200Z 01003KT 9999 FEW040 23/17 Q1013 NOSIG

Čas: 01:24 (22:24 UTC)

Předpověď počasí

Zpráva byla vytvořena před 5 hodinami a 24 minutami, v 17:00 UTC
Předpověď platná od 18 v 18 UTC do 19 v 24 UTC
Severovýchodní vítr 6 kt
Viditelnost 10 km a více
Skoro jasno ve výšce 4000 ft
Změna
od 19 v 06 UTC do 19 v 08 UTC
Severozápadní vítr 15 kt
Viditelnost: 7000 m
Změna
od 19 v 18 UTC do 19 v 20 UTC
Severoseverovýchodní vítr 10 kt

TAF: OEJN 181700Z 1818/1924 04006KT 9999 FEW040 BECMG 1906/1908 32015KT 7000 NSC BECMG 1918/1920 02010KT

Stav a předpovědi počasí z více než 4 000 letišť (zprávy METAR a TAF).

Červené a žluté tečky na mapě představují dostupné meteorologické stanice.

Když kurzor umístíte na tečku, zobrazí se název stanice.

Pak kliknutím zobrazíte stav a předpověď počasí.

Chcete-li změnit mapu, kliknutím na zelené tlačítko se znaménkem +mapu přiblížíte, kliknutím na zelené tlačítko se znaménkem – mapu oddálíte a kliknutím na zelené šipky přejdete na sousední mapy.


METAR-TAF: